createdAt,value
2022-09-12T00:02:19.729Z,13.07
2022-09-12T00:06:33.258Z,8.57
2022-09-12T00:10:39.118Z,7.80
2022-09-12T00:14:40.769Z,7.73
2022-09-12T00:18:42.548Z,7.97
2022-09-12T00:22:44.175Z,7.40
2022-09-12T00:26:46.048Z,9.80
2022-09-12T00:30:50.179Z,10.40
2022-09-12T00:34:51.865Z,9.13
2022-09-12T00:38:54.574Z,10.37
2022-09-12T00:42:56.254Z,10.83
2022-09-12T00:47:01.896Z,8.20
2022-09-12T00:51:03.659Z,11.37
2022-09-12T00:55:18.476Z,8.20
2022-09-12T00:59:26.557Z,10.80
2022-09-12T01:03:28.222Z,27.37
2022-09-12T01:07:30.372Z,8.30
2022-09-12T01:11:36.084Z,6.30
2022-09-12T01:15:39.597Z,7.07
2022-09-12T01:20:02.893Z,8.33
2022-09-12T01:24:34.832Z,6.27
2022-09-12T01:28:50.835Z,6.30
2022-09-12T01:32:58.608Z,6.97
2022-09-12T01:37:06.190Z,6.70
2022-09-12T01:41:26.554Z,6.00
2022-09-12T01:46:06.816Z,7.87
2022-09-12T01:50:15.869Z,6.00
2022-09-12T01:54:29.787Z,6.63
2022-09-12T01:58:58.697Z,5.77
2022-09-12T02:03:11.185Z,5.93
2022-09-12T02:07:20.949Z,6.07
2022-09-12T02:11:22.982Z,10.63
2022-09-12T02:15:38.070Z,5.43
2022-09-12T02:20:03.341Z,7.83
2022-09-12T02:24:09.656Z,6.80
2022-09-12T02:28:17.042Z,5.90
2022-09-12T02:32:30.254Z,8.17
2022-09-12T02:36:43.438Z,6.13
2022-09-12T02:40:45.206Z,10.97
2022-09-12T02:44:47.069Z,5.67
2022-09-12T02:48:48.732Z,6.57
2022-09-12T02:52:53.782Z,5.60
2022-09-12T02:56:55.466Z,7.83
2022-09-12T03:01:11.445Z,5.90
2022-09-12T03:05:23.487Z,7.47
2022-09-12T03:09:42.112Z,5.50
2022-09-12T03:14:08.870Z,5.50
2022-09-12T03:18:34.061Z,5.07
2022-09-12T03:23:01.985Z,5.20
2022-09-12T03:27:17.097Z,4.60
2022-09-12T03:31:20.305Z,5.80
2022-09-12T03:35:24.199Z,5.27
2022-09-12T03:39:27.239Z,5.80
2022-09-12T03:43:28.866Z,6.67
2022-09-12T03:47:30.753Z,6.47
2022-09-12T03:51:32.479Z,5.43
2022-09-12T03:55:34.144Z,5.37
2022-09-12T03:59:35.828Z,5.03
2022-09-12T04:03:38.402Z,9.53
2022-09-12T04:07:40.234Z,5.73
2022-09-12T04:11:41.886Z,6.00
2022-09-12T04:15:43.531Z,5.40
2022-09-12T04:19:45.198Z,8.43
2022-09-12T04:23:47.250Z,5.80
2022-09-12T04:27:48.935Z,11.30
2022-09-12T04:31:50.657Z,10.97
2022-09-12T04:35:52.278Z,5.60
2022-09-12T04:39:57.761Z,6.00
2022-09-12T04:44:07.230Z,5.07
2022-09-12T04:48:09.697Z,6.33
2022-09-12T04:52:11.354Z,5.77
2022-09-12T04:56:12.985Z,6.90
2022-09-12T05:00:15.141Z,6.53
2022-09-12T05:04:16.906Z,6.00
2022-09-12T05:08:18.755Z,5.37
2022-09-12T05:12:20.422Z,5.93
2022-09-12T05:16:24.946Z,6.83
2022-09-12T05:20:26.606Z,5.60
2022-09-12T05:24:28.730Z,7.20
2022-09-12T05:28:40.362Z,6.70
2022-09-12T05:32:42.051Z,5.80
2022-09-12T05:36:43.752Z,7.63
2022-09-12T05:40:45.804Z,11.23
2022-09-12T05:44:47.415Z,5.97
2022-09-12T05:48:55.165Z,6.07
2022-09-12T05:52:58.306Z,8.30
2022-09-12T05:57:00.047Z,12.10
2022-09-12T06:01:03.729Z,12.20
2022-09-12T06:05:05.630Z,6.67
2022-09-12T06:09:08.111Z,5.70
2022-09-12T06:13:09.857Z,5.00
2022-09-12T06:17:12.210Z,6.90
2022-09-12T06:21:14.536Z,7.33
2022-09-12T06:25:17.258Z,12.17
2022-09-12T06:29:19.331Z,9.83
2022-09-12T06:33:21.016Z,9.77
2022-09-12T06:37:23.010Z,6.57
2022-09-12T06:41:25.408Z,7.27
2022-09-12T06:45:27.564Z,15.60
2022-09-12T06:49:29.597Z,7.80
2022-09-12T06:53:36.911Z,8.67
2022-09-12T06:57:38.879Z,7.97
2022-09-12T07:01:41.715Z,7.75
2022-09-12T07:05:46.412Z,6.67
2022-09-12T07:09:48.281Z,7.63
2022-09-12T07:13:56.245Z,6.90
2022-09-12T07:17:58.194Z,10.70
2022-09-12T07:21:59.809Z,10.07
2022-09-12T07:26:01.944Z,11.20
2022-09-12T07:30:06.428Z,8.77
2022-09-12T07:34:08.069Z,12.87
2022-09-12T07:38:09.703Z,13.57
2022-09-12T07:42:12.577Z,12.30
2022-09-12T07:46:15.004Z,15.27
2022-09-12T07:50:17.143Z,13.15
2022-09-12T07:54:18.840Z,17.37
2022-09-12T07:58:20.486Z,16.33
2022-09-12T08:02:22.209Z,16.97
2022-09-12T08:06:25.619Z,16.95
2022-09-12T08:10:27.718Z,16.38
2022-09-12T08:14:30.186Z,16.02
2022-09-12T08:18:32.897Z,13.55
2022-09-12T08:22:34.708Z,13.82
2022-09-12T08:26:36.888Z,14.20
2022-09-12T08:30:38.564Z,17.50
2022-09-12T08:34:40.302Z,16.70
2022-09-12T08:38:44.875Z,14.57
2022-09-12T08:43:15.255Z,14.30
2022-09-12T08:47:37.542Z,16.35
2022-09-12T08:51:39.814Z,13.45
2022-09-12T08:55:43.329Z,14.65
2022-09-12T08:59:46.715Z,13.55
2022-09-12T09:04:17.389Z,15.45
2022-09-12T09:08:30.585Z,16.58
2022-09-12T09:12:57.176Z,12.70
2022-09-12T09:17:00.138Z,12.82
2022-09-12T09:21:26.887Z,12.82
2022-09-12T09:25:57.838Z,9.57
2022-09-12T09:29:59.733Z,11.73
2022-09-12T09:34:02.556Z,10.07
2022-09-12T09:38:34.384Z,8.38
2022-09-12T09:42:36.686Z,6.55
2022-09-12T09:46:38.504Z,8.07
2022-09-12T09:50:40.345Z,7.72
2022-09-12T09:54:49.516Z,5.78
2022-09-12T09:58:51.219Z,3.60
2022-09-12T10:03:04.815Z,4.88
2022-09-12T10:07:06.874Z,4.55
2022-09-12T10:11:19.969Z,4.78
2022-09-12T10:15:26.174Z,6.78
2022-09-12T10:19:37.805Z,5.50
2022-09-12T10:23:41.139Z,7.43
2022-09-12T10:27:43.138Z,4.22
2022-09-12T10:31:51.861Z,4.38
2022-09-12T10:35:55.156Z,4.15
2022-09-12T10:39:59.203Z,4.68
2022-09-12T10:44:27.101Z,6.88
2022-09-12T10:48:34.126Z,4.30
2022-09-12T10:52:35.773Z,4.78
2022-09-12T10:56:52.190Z,4.38
2022-09-12T11:01:03.207Z,3.60
2022-09-12T11:05:22.853Z,4.38
2022-09-12T11:09:39.443Z,2.88
2022-09-12T11:13:58.485Z,3.45
2022-09-12T11:18:03.212Z,3.60
2022-09-12T11:22:32.268Z,3.95
2022-09-12T11:26:53.223Z,6.13
2022-09-12T11:31:29.062Z,4.22
2022-09-12T11:35:33.517Z,5.03
2022-09-12T11:39:40.309Z,3.58
2022-09-12T11:43:44.058Z,3.78
2022-09-12T11:47:50.249Z,3.35
2022-09-12T11:52:01.809Z,3.47
2022-09-12T11:56:18.591Z,3.55
2022-09-12T12:00:22.926Z,3.63
2022-09-12T12:04:32.085Z,4.57
2022-09-12T12:08:39.714Z,3.47
2022-09-12T12:12:42.922Z,3.90
2022-09-12T12:16:45.233Z,2.40
2022-09-12T12:20:47.544Z,1.98
2022-09-12T12:25:05.590Z,1.77
2022-09-12T12:29:21.962Z,2.15
2022-09-12T12:33:26.901Z,2.30
2022-09-12T12:37:29.857Z,3.53
2022-09-12T12:41:37.612Z,2.83
2022-09-12T12:45:39.210Z,2.50
2022-09-12T12:49:41.062Z,2.75
2022-09-12T12:53:43.016Z,5.82
2022-09-12T12:57:51.006Z,2.00
2022-09-12T13:01:58.388Z,2.17
2022-09-12T13:06:05.515Z,2.05
2022-09-12T13:10:08.565Z,3.10
2022-09-12T13:14:48.977Z,2.72
2022-09-12T13:18:51.356Z,3.47
2022-09-12T13:22:59.000Z,2.42
2022-09-12T13:27:00.798Z,2.30
2022-09-12T13:31:26.156Z,3.63
2022-09-12T13:35:34.204Z,2.40
2022-09-12T13:39:44.962Z,3.35
2022-09-12T13:43:48.797Z,2.42
2022-09-12T13:47:58.818Z,2.33
2022-09-12T13:52:14.225Z,2.50
2022-09-12T13:56:17.516Z,2.33
2022-09-12T14:00:20.254Z,3.92
2022-09-12T14:04:45.509Z,2.80
2022-09-12T14:08:48.390Z,2.25
2022-09-12T14:12:51.824Z,3.58
2022-09-12T14:16:54.921Z,2.10
2022-09-12T14:21:00.885Z,2.65
2022-09-12T14:25:03.044Z,1.75
2022-09-12T14:29:08.515Z,1.65
2022-09-12T14:33:10.162Z,4.10
2022-09-12T14:37:12.151Z,2.63
2022-09-12T14:41:21.466Z,1.50
2022-09-12T14:45:23.250Z,2.15
2022-09-12T14:49:37.638Z,1.40
2022-09-12T14:53:49.121Z,1.75
2022-09-12T14:58:11.833Z,1.75
2022-09-12T15:02:22.559Z,1.77
2022-09-12T15:06:30.262Z,4.47
2022-09-12T15:10:36.108Z,3.45
2022-09-12T15:14:37.777Z,3.83
2022-09-12T15:18:39.462Z,3.30
2022-09-12T15:22:42.564Z,1.50
2022-09-12T15:26:44.277Z,2.50
2022-09-12T15:30:49.671Z,4.68
2022-09-12T15:34:52.717Z,1.67
2022-09-12T15:38:56.570Z,4.80
2022-09-12T15:42:58.306Z,1.95
2022-09-12T15:47:00.021Z,3.67
2022-09-12T15:51:01.802Z,1.80
2022-09-12T15:55:04.455Z,3.30
2022-09-12T15:59:06.200Z,4.78
2022-09-12T16:03:17.983Z,4.63
2022-09-12T16:07:19.659Z,2.05
2022-09-12T16:11:41.918Z,2.58
2022-09-12T16:15:43.790Z,2.42
2022-09-12T16:19:45.449Z,3.38
2022-09-12T16:23:48.438Z,3.03
2022-09-12T16:27:50.155Z,2.78
2022-09-12T16:31:51.873Z,3.65
2022-09-12T16:36:00.966Z,3.42
2022-09-12T16:40:04.097Z,2.58
2022-09-12T16:44:05.808Z,3.75
2022-09-12T16:48:07.682Z,2.45
2022-09-12T16:52:10.201Z,2.78
2022-09-12T16:56:11.921Z,3.58
2022-09-12T17:00:14.223Z,4.07
2022-09-12T17:04:15.945Z,2.88
2022-09-12T17:08:18.106Z,3.10
2022-09-12T17:12:20.122Z,4.28
2022-09-12T17:16:22.941Z,5.30
2022-09-12T17:20:24.781Z,3.15
2022-09-12T17:24:26.727Z,3.25
2022-09-12T17:28:28.939Z,4.03
2022-09-12T17:32:30.650Z,2.47
2022-09-12T17:36:32.793Z,3.17
2022-09-12T17:40:58.467Z,2.38
2022-09-12T17:44:59.294Z,7.95
2022-09-12T17:49:01.932Z,2.83
2022-09-12T17:53:03.880Z,4.65
2022-09-12T17:57:05.911Z,3.33
2022-09-12T18:01:30.710Z,4.28
2022-09-12T18:05:32.680Z,3.33
2022-09-12T18:09:36.182Z,3.13
2022-09-12T18:13:37.914Z,4.22
2022-09-12T18:17:40.142Z,2.80
2022-09-12T18:21:41.813Z,4.88
2022-09-12T18:25:43.468Z,7.68
2022-09-12T18:29:58.953Z,2.97
2022-09-12T18:34:12.474Z,3.55
2022-09-12T18:38:14.159Z,3.20
2022-09-12T18:42:15.863Z,5.90
2022-09-12T18:46:19.354Z,3.50
2022-09-12T18:50:21.772Z,3.75
2022-09-12T18:54:23.424Z,4.63
2022-09-12T18:58:25.103Z,4.88
2022-09-12T19:02:29.714Z,4.07
2022-09-12T19:06:40.710Z,3.63
2022-09-12T19:10:42.353Z,4.07
2022-09-12T19:14:44.132Z,3.15
2022-09-12T19:18:48.039Z,3.80
2022-09-12T19:22:49.762Z,6.03
2022-09-12T19:26:51.659Z,3.60
2022-09-12T19:30:53.710Z,3.67
2022-09-12T19:34:55.382Z,3.30
2022-09-12T19:38:57.301Z,3.20
2022-09-12T19:42:58.980Z,3.65
2022-09-12T19:47:00.787Z,3.95
2022-09-12T19:51:04.341Z,4.93
2022-09-12T19:55:06.659Z,4.18
2022-09-12T19:59:08.857Z,4.55
2022-09-12T20:03:10.473Z,3.88
2022-09-12T20:07:12.401Z,3.55
2022-09-12T20:11:19.953Z,4.05
2022-09-12T20:15:22.740Z,3.95
2022-09-12T20:19:24.384Z,3.75
2022-09-12T20:23:26.064Z,4.72
2022-09-12T20:27:27.733Z,6.03
2022-09-12T20:31:30.172Z,3.83
2022-09-12T20:35:32.083Z,4.63
2022-09-12T20:39:34.432Z,5.68
2022-09-12T20:43:38.405Z,4.63
2022-09-12T20:47:40.120Z,4.22
2022-09-12T20:51:41.832Z,4.60
2022-09-12T20:55:53.204Z,5.10
2022-09-12T20:59:54.911Z,3.70
2022-09-12T21:03:56.877Z,5.63
2022-09-12T21:08:00.618Z,5.28
2022-09-12T21:12:02.465Z,4.18
2022-09-12T21:16:05.491Z,4.35
2022-09-12T21:20:11.249Z,6.22
2022-09-12T21:24:14.962Z,4.28
2022-09-12T21:28:17.134Z,4.35
2022-09-12T21:32:18.752Z,4.28
2022-09-12T21:36:20.488Z,5.47
2022-09-12T21:40:22.156Z,4.25
2022-09-12T21:44:23.852Z,7.13
2022-09-12T21:48:25.806Z,5.13
2022-09-12T21:52:29.326Z,4.90
2022-09-12T21:56:31.146Z,3.78
2022-09-12T22:00:32.914Z,6.80
2022-09-12T22:04:34.630Z,4.68
2022-09-12T22:08:37.628Z,6.55
2022-09-12T22:12:42.851Z,5.28
2022-09-12T22:16:47.308Z,5.43
2022-09-12T22:20:49.015Z,4.90
2022-09-12T22:24:51.137Z,4.88
2022-09-12T22:28:54.048Z,5.75
2022-09-12T22:32:55.672Z,5.57
2022-09-12T22:36:57.581Z,4.82
2022-09-12T22:41:03.582Z,4.15
2022-09-12T22:45:07.382Z,6.13
2022-09-12T22:49:09.328Z,5.82
2022-09-12T22:53:11.192Z,5.00
2022-09-12T22:57:13.745Z,4.05
2022-09-12T23:01:15.421Z,5.32
2022-09-12T23:05:17.129Z,3.97
2022-09-12T23:09:18.827Z,3.83
2022-09-12T23:13:20.470Z,6.32
2022-09-12T23:17:22.106Z,4.20
2022-09-12T23:21:24.384Z,4.43
2022-09-12T23:25:26.243Z,5.32
2022-09-12T23:29:28.216Z,8.02
2022-09-12T23:33:31.452Z,4.70
2022-09-12T23:37:33.115Z,4.87
2022-09-12T23:41:34.794Z,6.07
2022-09-12T23:45:36.498Z,7.53
2022-09-12T23:49:38.226Z,7.20
2022-09-12T23:53:40.081Z,6.47
2022-09-12T23:57:41.744Z,6.20
